map of KNFG home
Great Circle Mapper logo
KNFG - Airport
Location
City:  Oceanside, California, United States
Name:Camp Pendleton MCAS
Old (Alt.):Munn Field
ICAO:KNFG
FAA:NFG

Details
Type:Airport (Airfield)
Use:Military
Latitude:33°18'05"N (33.301256)
Longitude:117°21'19"W (-117.355162)
Datum:WGS 1984
Elevation:78 ft (24 m)
Runways:1
Longest:6005 × 200 ft (1830 × 61 m), paved

Time
Time Zone:UTC-8 (DST-7)
Local Time:

Weather
METAR:KNFG 211354Z AUTO 03004KT 1 3/4SM OVC004 14/13 A3004 RMK AO2 SLP172 T01440128

Related Locations
Nearby:
Farthest:ZSE: 11497 mi / 18503 km
St-Pierre (St-Pierre de la Réunion) [Pierrefonds], RE

Find:

   beyond  
but within

Other Information
Maps:
NOTAMs:
Links:
Sources:

  
flag of United States
flag of California
  

Airport Diagram

Airport diagram for KNFG

Airport diagram PDF

Sectional Chart

Flight Planning
at skyvector.com

Satellite Image

Google Maps Satellite View

 

Copyright © 2004-2014 Karl L. Swartz. All rights reserved.
The Great Circle Mapper name and logo are trademarks of the Great Circle Mapper.
All other trademarks mentioned herein belong to their respective owners.
Please see credits for attibutions and further copyright information.

  Follow gcmap on Facebook Follow gcmap on Twitter

hCard Microformat

Geo Microformat